Time;durP1;ratioP1;P1;durP2;ratioP2;P2;SDS_P1;SDS_P2;PMS_P1;PMS_P2;Temp;Humidity;BMP_temperature;BMP_pressure;BME280_temperature;BME280_humidity;BME280_pressure;Samples;Min_cycle;Max_cycle;Signal;HPM_P1;HPM_P2
2022/01/06 00:01:05;;;;;;;7.63;3.13;;;8.10;99.90;;;;;;5134226;27;20236;-64
2022/01/06 00:03:33;;;;;;;7.75;3.95;;;8.10;99.90;;;;;;5134938;27;20565;-64
2022/01/06 00:06:05;;;;;;;9.70;3.03;;;8.10;99.90;;;;;;5134567;27;20528;-64
2022/01/06 00:08:34;;;;;;;8.45;3.78;;;8.00;99.90;;;;;;5134829;27;20684;-64
2022/01/06 00:11:00;;;;;;;8.77;3.72;;;8.00;99.90;;;;;;5132065;27;20747;-63
2022/01/06 00:13:33;;;;;;;8.70;4.22;;;8.00;99.90;;;;;;5135451;27;20232;-64
2022/01/06 00:16:11;;;;;;;10.63;3.28;;;8.00;99.90;;;;;;5135071;27;20219;-63
2022/01/06 00:23:07;;;;;;;10.43;3.85;;;8.00;99.90;;;;;;5135572;27;20291;-64
2022/01/06 00:24:23;;;;;;;7.40;3.05;;;8.00;99.90;;;;;;5122886;27;20221;-64
2022/01/06 00:26:51;;;;;;;8.93;2.72;;;8.00;99.90;;;;;;5135144;27;20231;-63
2022/01/06 00:29:19;;;;;;;5.93;3.50;;;8.00;99.90;;;;;;5135193;27;20223;-64
2022/01/06 00:31:48;;;;;;;7.22;2.83;;;8.00;99.90;;;;;;5134509;27;21177;-63
2022/01/06 00:34:15;;;;;;;3.30;2.67;;;8.00;99.90;;;;;;5135078;27;20253;-63
2022/01/06 00:36:43;;;;;;;9.88;2.90;;;8.00;99.90;;;;;;5123321;27;20226;-64
2022/01/06 00:39:11;;;;;;;5.25;2.75;;;7.90;99.90;;;;;;5134840;27;20279;-64
2022/01/06 00:41:38;;;;;;;7.72;5.47;;;7.90;99.90;;;;;;5134689;27;20279;-64
2022/01/06 00:44:06;;;;;;;6.90;4.93;;;7.80;99.90;;;;;;5128470;27;20840;-63
2022/01/06 00:46:33;;;;;;;8.23;3.45;;;7.80;99.90;;;;;;5129940;27;20218;-64
2022/01/06 00:49:01;;;;;;;11.23;5.10;;;7.80;99.90;;;;;;5134958;27;20219;-63
2022/01/06 00:51:28;;;;;;;2.95;2.10;;;7.70;99.90;;;;;;5134372;27;20223;-64
2022/01/06 00:53:55;;;;;;;4.43;3.63;;;7.60;99.90;;;;;;5134329;27;20268;-63
2022/01/06 00:56:22;;;;;;;4.85;3.55;;;7.60;99.90;;;;;;5134595;27;20574;-64
2022/01/06 00:58:49;;;;;;;2.25;1.50;;;7.50;99.90;;;;;;5134263;27;20223;-63
2022/01/06 01:01:16;;;;;;;4.75;3.10;;;7.50;99.90;;;;;;5134162;27;20309;-63
2022/01/06 01:03:43;;;;;;;3.28;2.13;;;7.40;99.90;;;;;;5134009;27;20226;-63
2022/01/06 01:06:11;;;;;;;4.07;2.70;;;7.40;99.90;;;;;;5134512;27;20545;-64
2022/01/06 01:08:38;;;;;;;4.97;3.15;;;7.40;99.90;;;;;;5126914;27;20215;-63
2022/01/06 01:11:05;;;;;;;7.22;4.38;;;7.30;99.90;;;;;;5134452;27;20633;-64
2022/01/06 01:13:37;;;;;;;10.90;4.47;;;7.30;99.90;;;;;;5133950;27;20214;-64
2022/01/06 01:16:19;;;;;;;8.63;5.25;;;7.20;99.90;;;;;;5133997;27;20605;-63
2022/01/06 01:18:46;;;;;;;4.95;3.33;;;7.10;99.90;;;;;;5133779;27;20227;-63
2022/01/06 01:21:14;;;;;;;5.05;2.67;;;7.00;99.90;;;;;;5133753;27;20222;-63
2022/01/06 01:23:41;;;;;;;5.05;2.70;;;7.00;99.90;;;;;;5133307;27;20634;-64
2022/01/06 01:26:08;;;;;;;4.43;1.92;;;6.90;99.90;;;;;;5133872;27;20224;-63
2022/01/06 01:28:43;;;;;;;5.38;2.22;;;6.90;99.90;;;;;;5133657;27;20225;-64
2022/01/06 01:31:23;;;;;;;4.05;2.83;;;6.90;99.90;;;;;;5133960;27;20296;-63
2022/01/06 01:33:52;;;;;;;5.28;3.65;;;6.90;99.50;;;;;;5133388;27;20221;-63
2022/01/06 01:36:21;;;;;;;3.70;1.85;;;6.80;99.00;;;;;;5124853;27;20216;-63
2022/01/06 01:38:48;;;;;;;4.13;1.90;;;6.70;98.80;;;;;;5131573;27;20571;-63
2022/01/06 01:41:15;;;;;;;5.25;2.85;;;6.70;98.70;;;;;;5133876;27;20311;-63
2022/01/06 01:43:43;;;;;;;9.60;5.38;;;6.70;98.30;;;;;;5130278;27;20626;-63
2022/01/06 01:46:13;;;;;;;3.92;2.35;;;6.60;98.40;;;;;;5125978;27;20214;-63
2022/01/06 01:48:45;;;;;;;10.75;7.18;;;6.60;98.40;;;;;;5133269;27;20225;-63
2022/01/06 01:51:11;;;;;;;5.88;3.10;;;6.50;98.20;;;;;;5133178;27;20611;-63
2022/01/06 01:53:40;;;;;;;13.50;9.20;;;6.50;98.40;;;;;;5133258;27;20226;-63
2022/01/06 01:56:07;;;;;;;11.23;5.05;;;6.50;98.80;;;;;;5133686;27;20673;-63
2022/01/06 01:58:35;;;;;;;6.30;3.05;;;6.50;98.70;;;;;;5133396;27;20232;-63
2022/01/06 02:01:02;;;;;;;4.18;2.40;;;6.60;98.60;;;;;;5133614;27;20237;-63
2022/01/06 02:03:29;;;;;;;5.28;2.85;;;6.60;98.20;;;;;;5133403;27;20541;-63
2022/01/06 02:05:55;;;;;;;3.03;1.80;;;6.60;98.30;;;;;;5132890;27;20225;-63
2022/01/06 02:08:22;;;;;;;5.13;1.90;;;6.60;98.30;;;;;;5133280;27;20226;-63
2022/01/06 02:10:50;;;;;;;10.35;4.75;;;6.60;98.10;;;;;;5132959;27;20227;-63
2022/01/06 02:13:17;;;;;;;6.90;2.70;;;6.60;98.20;;;;;;5133716;27;20223;-63
2022/01/06 02:15:44;;;;;;;5.53;2.88;;;6.60;98.20;;;;;;5132876;27;20272;-63
2022/01/06 02:18:11;;;;;;;32.75;20.90;;;6.50;97.70;;;;;;5133543;27;20232;-62
2022/01/06 02:20:40;;;;;;;6.03;3.40;;;6.50;97.70;;;;;;5133058;27;20703;-63
2022/01/06 02:23:06;;;;;;;5.82;5.05;;;6.50;97.80;;;;;;5133245;27;20223;-62
2022/01/06 02:25:34;;;;;;;4.75;2.05;;;6.50;97.90;;;;;;5133452;27;20223;-63
2022/01/06 02:28:03;;;;;;;24.98;12.57;;;6.50;98.00;;;;;;5133177;27;21230;-63
2022/01/06 02:30:33;;;;;;;5.68;3.15;;;6.50;97.80;;;;;;5133136;27;20230;-63
2022/01/06 02:33:01;;;;;;;7.13;2.83;;;6.50;98.00;;;;;;5139933;27;20221;-63
2022/01/06 02:35:29;;;;;;;5.55;2.85;;;6.50;97.80;;;;;;5131382;27;20672;-64
2022/01/06 02:37:58;;;;;;;7.07;5.40;;;6.50;97.60;;;;;;5128005;27;20230;-64
2022/01/06 02:40:27;;;;;;;10.77;4.25;;;6.50;97.80;;;;;;5133100;27;20693;-64
2022/01/06 02:42:56;;;;;;;6.78;4.25;;;6.50;97.90;;;;;;5130499;27;20222;-63
2022/01/06 02:45:26;;;;;;;3.60;2.30;;;6.40;97.60;;;;;;5114272;27;20237;-62
2022/01/06 02:47:53;;;;;;;2.47;1.38;;;6.50;97.00;;;;;;5130317;27;20255;-63
2022/01/06 02:50:20;;;;;;;2.75;1.88;;;6.50;96.90;;;;;;5133285;27;20236;-62
2022/01/06 02:52:47;;;;;;;4.55;3.30;;;6.50;96.70;;;;;;5132493;27;20222;-62
2022/01/06 02:55:16;;;;;;;6.35;3.53;;;6.50;97.10;;;;;;5133194;27;20226;-63
2022/01/06 02:57:45;;;;;;;4.07;2.65;;;6.50;97.20;;;;;;5132545;27;20214;-62
2022/01/06 03:00:15;;;;;;;6.53;3.58;;;6.50;97.60;;;;;;5132948;27;20221;-63
2022/01/06 03:02:43;;;;;;;4.22;2.85;;;6.50;97.60;;;;;;5130862;27;20556;-64
2022/01/06 03:05:13;;;;;;;7.30;2.85;;;6.50;96.80;;;;;;5137011;27;20238;-62
2022/01/06 03:07:40;;;;;;;8.15;3.90;;;6.50;96.30;;;;;;5135890;27;20724;-62
2022/01/06 03:10:10;;;;;;;1.83;1.45;;;6.40;95.80;;;;;;5136550;27;20249;-63
2022/01/06 03:12:40;;;;;;;2.42;1.52;;;6.40;95.60;;;;;;5136836;27;20219;-63
2022/01/06 03:15:08;;;;;;;4.95;2.42;;;6.40;96.00;;;;;;5136431;27;20215;-63
2022/01/06 03:17:35;;;;;;;5.53;2.22;;;6.40;96.50;;;;;;5136594;27;20226;-62
2022/01/06 03:20:02;;;;;;;9.15;4.43;;;6.40;96.80;;;;;;5135804;27;20413;-63
2022/01/06 03:22:29;;;;;;;4.75;2.50;;;6.30;97.00;;;;;;5136460;27;20558;-62
2022/01/06 03:24:56;;;;;;;3.90;3.10;;;6.30;96.30;;;;;;5135948;27;20222;-63
2022/01/06 03:27:23;;;;;;;4.32;2.28;;;6.20;95.70;;;;;;5136862;27;20224;-63
2022/01/06 03:29:51;;;;;;;3.55;2.45;;;6.10;95.70;;;;;;5135860;27;20552;-63
2022/01/06 03:32:19;;;;;;;8.50;3.65;;;6.10;95.20;;;;;;5134526;27;20216;-64
2022/01/06 03:34:46;;;;;;;5.38;3.15;;;6.10;94.90;;;;;;5135927;27;20232;-64
2022/01/06 03:37:14;;;;;;;4.68;2.20;;;6.10;94.90;;;;;;5129796;27;20232;-64
2022/01/06 03:39:43;;;;;;;5.07;1.70;;;6.10;94.70;;;;;;5136089;27;20566;-63
2022/01/06 03:42:10;;;;;;;4.43;2.40;;;6.00;94.40;;;;;;5135888;27;20226;-64
2022/01/06 03:44:38;;;;;;;6.85;4.53;;;5.80;94.20;;;;;;5120618;27;20217;-64
2022/01/06 03:47:07;;;;;;;7.22;4.40;;;5.80;94.60;;;;;;5126589;27;20707;-63
2022/01/06 03:49:34;;;;;;;1.85;1.38;;;5.70;94.70;;;;;;5135932;27;20682;-63
2022/01/06 03:52:01;;;;;;;2.75;1.27;;;5.70;94.40;;;;;;5135436;27;20575;-64
2022/01/06 03:54:28;;;;;;;5.88;2.95;;;5.70;94.60;;;;;;5135736;27;20238;-63
2022/01/06 03:56:56;;;;;;;4.95;2.75;;;5.70;94.40;;;;;;5135673;27;20242;-63
2022/01/06 03:59:25;;;;;;;5.93;3.50;;;5.70;94.50;;;;;;5135809;27;20276;-64
2022/01/06 04:01:55;;;;;;;3.15;2.13;;;5.60;94.50;;;;;;5135202;27;20630;-64
2022/01/06 04:04:23;;;;;;;6.82;2.42;;;5.50;94.80;;;;;;5122096;27;20219;-64
2022/01/06 04:06:49;;;;;;;5.70;2.50;;;5.50;94.90;;;;;;5132352;27;20245;-64
2022/01/06 04:09:16;;;;;;;4.72;2.00;;;5.50;94.50;;;;;;5133156;27;20695;-63
2022/01/06 04:11:43;;;;;;;13.93;8.75;;;5.50;94.70;;;;;;5133522;27;20714;-63
2022/01/06 04:14:10;;;;;;;2.45;1.95;;;5.50;94.90;;;;;;5134229;27;20214;-64
2022/01/06 04:16:39;;;;;;;3.42;1.80;;;5.50;94.90;;;;;;5135283;27;20226;-64
2022/01/06 04:19:06;;;;;;;2.90;1.77;;;5.50;94.90;;;;;;5135191;27;20726;-63
2022/01/06 04:21:35;;;;;;;3.90;1.42;;;5.60;94.00;;;;;;5135253;27;20226;-62
2022/01/06 04:24:02;;;;;;;4.13;1.40;;;5.50;94.00;;;;;;5134978;27;20567;-63
2022/01/06 04:26:30;;;;;;;5.00;2.22;;;5.50;94.10;;;;;;5135376;27;20214;-63
2022/01/06 04:28:57;;;;;;;3.30;1.80;;;5.50;94.30;;;;;;5134650;27;20226;-63
2022/01/06 04:31:24;;;;;;;4.05;2.65;;;5.40;93.90;;;;;;5135336;27;20221;-63
2022/01/06 04:33:51;;;;;;;3.45;2.30;;;5.40;93.70;;;;;;5134552;27;20698;-63
2022/01/06 04:36:18;;;;;;;2.30;1.25;;;5.40;93.60;;;;;;5129066;27;20223;-63
2022/01/06 04:38:46;;;;;;;3.95;1.80;;;5.40;93.50;;;;;;5135099;27;20235;-63
2022/01/06 04:41:13;;;;;;;3.00;1.65;;;5.40;93.00;;;;;;5134718;27;20233;-64
2022/01/06 04:43:40;;;;;;;3.28;2.20;;;5.30;92.70;;;;;;5126136;27;20304;-63
2022/01/06 04:46:06;;;;;;;3.95;1.77;;;5.30;92.90;;;;;;5131334;27;20236;-63
2022/01/06 04:48:35;;;;;;;2.50;1.70;;;5.30;92.80;;;;;;5134369;27;20220;-64
2022/01/06 04:51:02;;;;;;;3.15;1.92;;;5.30;92.50;;;;;;5134504;27;20237;-63
2022/01/06 04:53:29;;;;;;;4.43;1.30;;;5.20;92.70;;;;;;5134640;27;20217;-63
2022/01/06 04:55:59;;;;;;;1.95;1.30;;;5.20;92.70;;;;;;5132064;27;20788;-63
2022/01/06 04:58:26;;;;;;;2.50;1.02;;;5.20;92.70;;;;;;5134795;27;20217;-63
2022/01/06 05:00:53;;;;;;;2.75;1.10;;;5.20;93.00;;;;;;5134342;27;20702;-63
2022/01/06 05:03:20;;;;;;;4.78;1.13;;;5.20;92.60;;;;;;5134207;27;20304;-64
2022/01/06 05:05:47;;;;;;;3.47;1.23;;;5.10;92.70;;;;;;5133759;27;20236;-64
2022/01/06 05:08:13;;;;;;;3.53;1.85;;;5.00;92.70;;;;;;5134131;27;20228;-63
2022/01/06 05:10:40;;;;;;;3.22;1.67;;;5.10;92.80;;;;;;5133864;27;20562;-63
2022/01/06 05:13:08;;;;;;;5.07;1.95;;;5.00;92.70;;;;;;5134159;27;20222;-63
2022/01/06 05:15:35;;;;;;;3.10;2.00;;;5.00;92.70;;;;;;5134425;27;20224;-63
2022/01/06 05:18:02;;;;;;;4.88;2.28;;;5.00;92.80;;;;;;5133972;27;20232;-63
2022/01/06 05:20:30;;;;;;;2.50;1.30;;;5.00;93.10;;;;;;5133769;27;20226;-63
2022/01/06 05:22:58;;;;;;;2.58;1.50;;;5.00;93.10;;;;;;5133936;27;20283;-63
2022/01/06 05:25:27;;;;;;;3.15;1.70;;;4.90;93.30;;;;;;5133464;27;21014;-62
2022/01/06 05:27:54;;;;;;;5.53;1.48;;;4.90;93.50;;;;;;5133390;27;20219;-61
2022/01/06 05:30:23;;;;;;;2.63;1.40;;;4.90;93.30;;;;;;5133920;27;20224;-63
2022/01/06 05:32:50;;;;;;;1.40;0.90;;;4.90;93.40;;;;;;5134113;27;20234;-63
2022/01/06 05:35:17;;;;;;;2.35;1.55;;;5.00;93.60;;;;;;5133296;27;20223;-63
2022/01/06 05:37:44;;;;;;;6.80;1.65;;;5.00;93.70;;;;;;5127607;27;20229;-63
2022/01/06 05:40:12;;;;;;;1.75;1.05;;;5.00;93.60;;;;;;5133385;27;20230;-64
2022/01/06 05:42:39;;;;;;;1.80;1.20;;;5.00;93.90;;;;;;5133951;27;20222;-64
2022/01/06 05:45:07;;;;;;;3.13;1.55;;;5.00;94.10;;;;;;5121196;27;20236;-64
2022/01/06 05:47:35;;;;;;;5.55;2.97;;;5.00;94.20;;;;;;5133927;27;20210;-63
2022/01/06 05:50:03;;;;;;;4.15;2.90;;;5.00;94.40;;;;;;5133502;27;20247;-63
2022/01/06 05:52:29;;;;;;;2.30;1.90;;;5.00;94.40;;;;;;5133717;27;20660;-63
2022/01/06 05:54:56;;;;;;;2.22;1.88;;;5.00;94.10;;;;;;5133316;27;20244;-63
2022/01/06 05:57:23;;;;;;;2.53;1.88;;;5.10;93.80;;;;;;5129191;27;20230;-63
2022/01/06 05:59:50;;;;;;;3.80;1.52;;;5.10;93.90;;;;;;5133692;27;20233;-62
2022/01/06 06:02:17;;;;;;;3.97;1.50;;;5.10;94.10;;;;;;5132839;27;20221;-64
2022/01/06 06:04:45;;;;;;;1.45;1.33;;;5.00;93.90;;;;;;5133695;27;20568;-63
2022/01/06 06:07:12;;;;;;;1.98;1.15;;;5.00;94.00;;;;;;5132283;27;20233;-64
2022/01/06 06:09:39;;;;;;;3.53;1.70;;;5.00;94.10;;;;;;5133522;27;20245;-63
2022/01/06 06:12:07;;;;;;;2.15;1.00;;;5.00;94.30;;;;;;5133254;27;20221;-64
2022/01/06 06:14:34;;;;;;;2.95;1.75;;;5.00;94.30;;;;;;5123706;27;20222;-64
2022/01/06 06:17:01;;;;;;;2.10;1.30;;;5.00;94.30;;;;;;5132939;27;20557;-63
2022/01/06 06:19:27;;;;;;;3.38;1.40;;;5.00;94.40;;;;;;5133541;27;20218;-63
2022/01/06 06:21:56;;;;;;;2.42;1.65;;;5.00;94.70;;;;;;5132846;27;20276;-63
2022/01/06 06:24:23;;;;;;;2.88;1.80;;;4.90;94.70;;;;;;5133224;27;20214;-63
2022/01/06 06:26:50;;;;;;;2.90;1.80;;;4.90;94.70;;;;;;5133503;27;20233;-63
2022/01/06 06:29:17;;;;;;;8.95;2.40;;;4.90;94.70;;;;;;5133002;27;20221;-64
2022/01/06 06:31:44;;;;;;;4.45;1.75;;;4.90;95.10;;;;;;5133215;27;20230;-63
2022/01/06 06:34:11;;;;;;;1.92;1.55;;;4.90;95.30;;;;;;5133005;27;20224;-64
2022/01/06 06:36:39;;;;;;;5.05;1.90;;;4.80;95.60;;;;;;5125849;27;20229;-63
2022/01/06 06:39:09;;;;;;;3.63;2.25;;;4.80;95.60;;;;;;5122435;27;20283;-64
2022/01/06 06:41:35;;;;;;;4.38;3.30;;;4.80;95.60;;;;;;5117057;27;20230;-63
2022/01/06 06:44:02;;;;;;;3.22;2.45;;;4.80;95.90;;;;;;5131131;27;20232;-63
2022/01/06 06:46:29;;;;;;;17.38;2.65;;;4.90;96.00;;;;;;5137795;27;20247;-63
2022/01/06 06:48:56;;;;;;;5.25;3.05;;;4.80;96.20;;;;;;5137333;27;20222;-63
2022/01/06 06:51:23;;;;;;;6.22;2.40;;;4.80;96.30;;;;;;5136992;27;20226;-63
2022/01/06 06:53:50;;;;;;;3.05;1.80;;;4.80;96.40;;;;;;5137499;27;20706;-62
2022/01/06 06:56:18;;;;;;;1.90;1.70;;;4.80;96.40;;;;;;5136739;27;20249;-62
2022/01/06 06:58:45;;;;;;;6.43;1.73;;;4.90;96.60;;;;;;5137303;27;20222;-64
2022/01/06 07:01:12;;;;;;;3.92;2.00;;;4.80;96.60;;;;;;5136630;27;20324;-63
2022/01/06 07:03:39;;;;;;;2.15;1.50;;;4.80;96.90;;;;;;5136980;27;20305;-64
2022/01/06 07:06:06;;;;;;;3.15;2.42;;;4.70;97.00;;;;;;5136734;27;20249;-63
2022/01/06 07:08:33;;;;;;;5.22;2.63;;;4.70;97.30;;;;;;5136988;27;20300;-64
2022/01/06 07:10:59;;;;;;;9.85;4.95;;;4.70;97.40;;;;;;5136989;27;20318;-63
2022/01/06 07:13:28;;;;;;;5.57;3.35;;;4.70;97.50;;;;;;5136606;27;20707;-63
2022/01/06 07:15:55;;;;;;;4.60;2.75;;;4.70;97.60;;;;;;5136976;27;20222;-63
2022/01/06 07:18:21;;;;;;;3.45;2.25;;;4.70;97.70;;;;;;5136493;27;20228;-63
2022/01/06 07:20:48;;;;;;;5.32;1.85;;;4.70;97.90;;;;;;5136943;27;20554;-64
2022/01/06 07:23:15;;;;;;;4.65;1.70;;;4.70;98.00;;;;;;5136450;27;20229;-63
2022/01/06 07:25:42;;;;;;;3.38;1.88;;;4.70;98.00;;;;;;5136679;27;20696;-64
2022/01/06 07:28:10;;;;;;;3.92;1.52;;;4.60;98.10;;;;;;5136481;27;20218;-64
2022/01/06 07:30:40;;;;;;;3.67;2.42;;;4.70;98.20;;;;;;5136462;27;20222;-63
2022/01/06 07:33:08;;;;;;;6.15;3.53;;;4.70;98.10;;;;;;5136174;27;20571;-64
2022/01/06 07:35:36;;;;;;;3.35;1.90;;;4.70;98.40;;;;;;5136225;27;20222;-63
2022/01/06 07:38:03;;;;;;;2.63;1.73;;;4.60;98.50;;;;;;5136443;27;20570;-64
2022/01/06 07:40:29;;;;;;;2.65;1.80;;;4.70;98.50;;;;;;5136270;27;20291;-64
2022/01/06 07:42:56;;;;;;;2.63;2.03;;;4.70;98.40;;;;;;5136565;27;20577;-64
2022/01/06 07:45:23;;;;;;;4.70;1.98;;;4.70;98.50;;;;;;5135932;27;20275;-62
2022/01/06 07:48:01;;;;;;;3.80;2.50;;;4.70;98.60;;;;;;5136362;27;20566;-63
2022/01/06 07:50:29;;;;;;;7.05;4.50;;;4.70;98.50;;;;;;5135244;27;20226;-63
2022/01/06 07:52:57;;;;;;;3.40;2.88;;;4.70;98.70;;;;;;5136411;27;20245;-63
2022/01/06 07:55:24;;;;;;;7.10;3.28;;;4.70;98.80;;;;;;5135860;27;20222;-63
2022/01/06 07:57:51;;;;;;;4.20;2.17;;;4.70;98.80;;;;;;5136086;27;20226;-63
2022/01/06 08:00:20;;;;;;;8.30;3.17;;;4.70;98.90;;;;;;5135647;27;20226;-63
2022/01/06 08:02:48;;;;;;;3.50;2.22;;;4.70;98.60;;;;;;5135974;27;20689;-63
2022/01/06 08:05:16;;;;;;;3.15;2.53;;;4.70;98.80;;;;;;5135803;27;20566;-63
2022/01/06 08:07:44;;;;;;;4.75;2.33;;;4.80;98.80;;;;;;5135972;27;20233;-63
2022/01/06 08:10:11;;;;;;;5.03;1.85;;;4.80;98.70;;;;;;5135361;27;20274;-63
2022/01/06 08:12:38;;;;;;;6.35;2.20;;;4.80;98.90;;;;;;5136013;27;20240;-64
2022/01/06 08:15:06;;;;;;;4.90;3.10;;;4.70;99.10;;;;;;5135971;27;20305;-63
2022/01/06 08:17:33;;;;;;;2.90;2.20;;;4.70;99.20;;;;;;5135449;27;21270;-63
2022/01/06 08:20:00;;;;;;;6.40;2.60;;;4.80;99.00;;;;;;5135754;27;20590;-64
2022/01/06 08:22:29;;;;;;;6.30;2.30;;;4.80;99.00;;;;;;5135242;27;20706;-63
2022/01/06 08:24:56;;;;;;;3.17;2.85;;;4.80;99.10;;;;;;5135502;27;20270;-64
2022/01/06 08:27:23;;;;;;;6.85;3.13;;;4.80;99.10;;;;;;5135406;27;20222;-64
2022/01/06 08:29:51;;;;;;;4.70;3.38;;;4.80;99.10;;;;;;5135535;27;20567;-63
2022/01/06 08:32:18;;;;;;;4.07;2.70;;;4.80;98.90;;;;;;5135101;27;20229;-63
2022/01/06 08:34:45;;;;;;;7.63;4.45;;;4.80;98.90;;;;;;5135505;27;20680;-64
2022/01/06 08:37:13;;;;;;;6.55;4.22;;;4.80;99.00;;;;;;5134678;27;20283;-64
2022/01/06 08:39:41;;;;;;;10.85;5.22;;;4.80;99.10;;;;;;5135266;27;20555;-63
2022/01/06 08:42:08;;;;;;;6.90;4.47;;;4.80;99.10;;;;;;5135367;27;20565;-63
2022/01/06 08:44:36;;;;;;;7.57;4.35;;;4.90;99.10;;;;;;5134957;27;20214;-63
2022/01/06 08:47:03;;;;;;;8.18;3.90;;;4.90;98.90;;;;;;5135322;27;20226;-63
2022/01/06 08:49:31;;;;;;;6.85;2.78;;;5.00;99.10;;;;;;5134664;27;20232;-63
2022/01/06 08:51:58;;;;;;;4.57;3.67;;;4.90;98.90;;;;;;5135117;27;20828;-63
2022/01/06 08:54:24;;;;;;;4.75;3.20;;;4.90;99.10;;;;;;5134606;27;20227;-62
2022/01/06 08:56:53;;;;;;;9.45;3.30;;;4.90;99.20;;;;;;5135157;27;20511;-64
2022/01/06 08:59:19;;;;;;;6.88;2.55;;;5.00;98.90;;;;;;5134544;27;20233;-64
2022/01/06 09:01:46;;;;;;;6.68;2.15;;;5.00;99.00;;;;;;5134613;27;20229;-64
2022/01/06 09:04:13;;;;;;;2.20;2.00;;;5.00;98.90;;;;;;5134484;27;20226;-63
2022/01/06 09:06:40;;;;;;;5.90;2.10;;;5.00;99.10;;;;;;5134810;27;20214;-63
2022/01/06 09:09:07;;;;;;;4.40;2.28;;;5.00;99.30;;;;;;5134941;27;20248;-64
2022/01/06 09:11:34;;;;;;;4.38;2.15;;;5.00;99.10;;;;;;5134200;27;20236;-64
2022/01/06 09:14:02;;;;;;;6.70;2.95;;;5.10;99.00;;;;;;5134652;27;20218;-64
2022/01/06 09:16:29;;;;;;;6.68;2.67;;;5.10;99.00;;;;;;5134241;27;20226;-63
2022/01/06 09:18:55;;;;;;;5.57;2.40;;;5.20;98.80;;;;;;5134717;27;20226;-63
2022/01/06 09:21:24;;;;;;;4.15;1.75;;;5.20;98.70;;;;;;5133816;27;20732;-62
2022/01/06 09:23:51;;;;;;;3.28;1.90;;;5.20;99.00;;;;;;5134480;27;20233;-63
2022/01/06 09:26:18;;;;;;;4.43;2.13;;;5.20;98.80;;;;;;5134054;27;20715;-62
2022/01/06 09:28:45;;;;;;;4.57;2.15;;;5.20;98.50;;;;;;5134455;27;20222;-63
2022/01/06 09:31:13;;;;;;;3.35;2.50;;;5.20;98.60;;;;;;5134278;27;20228;-63
2022/01/06 09:33:40;;;;;;;7.80;2.85;;;5.20;98.60;;;;;;5133979;27;20224;-63
2022/01/06 09:36:07;;;;;;;4.70;2.13;;;5.20;98.70;;;;;;5126631;27;20227;-62
2022/01/06 09:38:34;;;;;;;4.00;2.28;;;5.20;98.90;;;;;;5113296;27;20224;-62
2022/01/06 09:41:05;;;;;;;5.35;2.70;;;5.20;98.80;;;;;;5113598;27;20229;-63
2022/01/06 09:43:34;;;;;;;2.80;1.90;;;5.20;98.70;;;;;;5123405;27;20595;-63
2022/01/06 09:46:03;;;;;;;3.40;2.20;;;5.20;98.40;;;;;;5134218;27;20234;-63
2022/01/06 09:48:32;;;;;;;4.72;1.80;;;5.30;98.40;;;;;;5133716;27;20298;-63
2022/01/06 09:50:59;;;;;;;5.20;3.08;;;5.30;98.40;;;;;;5133954;27;20231;-64
2022/01/06 09:53:27;;;;;;;6.97;2.35;;;5.30;98.40;;;;;;5133440;27;20222;-63
2022/01/06 09:55:54;;;;;;;4.28;2.58;;;5.30;98.50;;;;;;5133919;27;20253;-63
2022/01/06 09:58:24;;;;;;;7.35;2.72;;;5.40;98.40;;;;;;5133385;27;20236;-64
2022/01/06 10:00:52;;;;;;;4.35;2.08;;;5.50;98.70;;;;;;5133832;27;20675;-64
2022/01/06 10:03:19;;;;;;;5.82;2.75;;;5.50;98.50;;;;;;5133286;27;20649;-64
2022/01/06 10:05:50;;;;;;;5.38;3.22;;;5.50;98.50;;;;;;5133697;27;20237;-64
2022/01/06 10:08:28;;;;;;;4.30;1.80;;;5.50;98.40;;;;;;5133832;27;20240;-64
2022/01/06 10:11:12;;;;;;;4.13;2.40;;;5.60;98.20;;;;;;5133871;27;20717;-63
2022/01/06 10:13:40;;;;;;;3.05;1.75;;;5.60;98.10;;;;;;5133489;27;20214;-63
2022/01/06 10:16:17;;;;;;;7.75;3.38;;;5.60;98.10;;;;;;5133670;27;20290;-63
2022/01/06 10:18:58;;;;;;;7.78;2.90;;;5.70;97.90;;;;;;5133200;27;20228;-64
2022/01/06 10:21:30;;;;;;;4.13;1.85;;;5.70;97.70;;;;;;5133668;27;20700;-63
2022/01/06 10:24:05;;;;;;;4.18;1.98;;;5.80;97.70;;;;;;5132998;27;20229;-64
2022/01/06 10:26:33;;;;;;;2.58;1.90;;;5.80;97.60;;;;;;5133621;27;20214;-64
2022/01/06 10:29:00;;;;;;;3.67;2.58;;;5.80;97.70;;;;;;5133123;27;20575;-64
2022/01/06 10:31:29;;;;;;;4.72;2.20;;;5.90;97.50;;;;;;5133591;27;20246;-64
2022/01/06 10:33:56;;;;;;;2.60;1.85;;;6.00;97.40;;;;;;5133004;27;20246;-64
2022/01/06 10:36:30;;;;;;;4.88;2.45;;;6.00;96.90;;;;;;5133442;27;20214;-64
2022/01/06 10:38:58;;;;;;;5.43;2.22;;;6.00;97.00;;;;;;5133081;27;20236;-63
2022/01/06 10:41:27;;;;;;;5.43;2.58;;;6.00;96.90;;;;;;5133402;27;20698;-63
2022/01/06 10:43:55;;;;;;;3.20;2.03;;;6.00;96.80;;;;;;5132897;27;20222;-63
2022/01/06 10:46:29;;;;;;;5.68;2.92;;;6.00;96.80;;;;;;5133420;27;20266;-64
2022/01/06 10:49:00;;;;;;;9.65;3.47;;;6.10;96.60;;;;;;5133156;27;20233;-64
2022/01/06 10:51:37;;;;;;;5.65;2.92;;;6.10;96.50;;;;;;5133210;27;20226;-64
2022/01/06 10:54:05;;;;;;;3.58;2.88;;;6.10;96.60;;;;;;5132776;27;20666;-64
2022/01/06 10:56:32;;;;;;;6.80;2.83;;;6.10;96.20;;;;;;5133387;27;20228;-63
2022/01/06 10:58:59;;;;;;;5.82;3.10;;;6.10;96.30;;;;;;5132808;27;20223;-64
2022/01/06 11:01:27;;;;;;;3.08;2.75;;;6.10;96.20;;;;;;5133148;27;20218;-64
2022/01/06 11:03:54;;;;;;;3.28;2.35;;;6.10;96.30;;;;;;5132683;27;20227;-64
2022/01/06 11:06:20;;;;;;;6.22;2.70;;;6.10;96.50;;;;;;5133229;27;20218;-64
2022/01/06 11:08:51;;;;;;;5.55;2.40;;;6.10;96.50;;;;;;5132623;27;20228;-64
2022/01/06 11:12:26;;;;;;;2.70;1.75;;;6.10;96.40;;;;;;5133268;27;20306;-64
2022/01/06 11:14:31;;;;;;;4.78;2.75;;;6.20;96.10;;;;;;5132800;27;20270;-64
2022/01/06 11:16:58;;;;;;;6.32;3.50;;;6.30;95.20;;;;;;5133065;27;20234;-64
2022/01/06 11:19:28;;;;;;;6.95;3.35;;;6.20;94.90;;;;;;5132684;27;20676;-64
2022/01/06 11:21:59;;;;;;;11.70;5.72;;;6.30;94.70;;;;;;5132954;27;20699;-64
2022/01/06 11:24:28;;;;;;;3.97;2.15;;;6.30;94.50;;;;;;5134346;27;20230;-64
2022/01/06 11:27:00;;;;;;;4.53;1.83;;;6.40;94.10;;;;;;5136981;27;20218;-63
2022/01/06 11:29:29;;;;;;;7.35;2.05;;;6.40;94.20;;;;;;5136415;27;20684;-64
2022/01/06 11:31:56;;;;;;;3.45;2.28;;;6.40;94.20;;;;;;5136574;27;20249;-63
2022/01/06 11:34:23;;;;;;;3.50;2.35;;;6.40;93.90;;;;;;5136742;27;20219;-64
2022/01/06 11:36:52;;;;;;;2.20;2.00;;;6.50;93.80;;;;;;5136117;27;20215;-64
2022/01/06 11:39:29;;;;;;;4.35;2.35;;;6.50;93.40;;;;;;5136347;27;20576;-64
2022/01/06 11:41:57;;;;;;;3.85;2.15;;;6.60;93.30;;;;;;5136303;27;20317;-64
2022/01/06 11:44:25;;;;;;;8.27;2.33;;;6.60;92.80;;;;;;5136471;27;20311;-64
2022/01/06 11:46:55;;;;;;;2.80;2.00;;;6.60;92.60;;;;;;5135819;27;20574;-64
2022/01/06 11:49:34;;;;;;;8.85;2.17;;;6.60;91.20;;;;;;5136386;27;20605;-64
2022/01/06 11:52:09;;;;;;;3.55;1.92;;;6.60;91.20;;;;;;5135973;27;20224;-64
2022/01/06 11:54:48;;;;;;;3.33;2.20;;;6.60;91.10;;;;;;5136373;27;20218;-64
2022/01/06 11:57:15;;;;;;;2.40;1.50;;;6.60;91.00;;;;;;5136488;27;20307;-64
2022/01/06 11:59:42;;;;;;;7.95;2.30;;;6.60;90.30;;;;;;5135775;27;20570;-64
2022/01/06 12:02:09;;;;;;;4.30;2.60;;;6.60;90.30;;;;;;5136167;27;20236;-64
2022/01/06 12:04:41;;;;;;;3.60;1.85;;;6.60;90.40;;;;;;5135474;27;20224;-63
2022/01/06 12:07:10;;;;;;;2.80;1.95;;;6.60;89.90;;;;;;5135923;27;20681;-63
2022/01/06 12:09:37;;;;;;;5.82;2.63;;;6.60;89.30;;;;;;5135451;27;20219;-63
2022/01/06 12:12:09;;;;;;;5.10;1.95;;;6.60;88.50;;;;;;5135933;27;20222;-64
2022/01/06 12:14:36;;;;;;;3.63;2.15;;;6.70;88.50;;;;;;5135463;27;20241;-64
2022/01/06 12:17:04;;;;;;;3.10;2.80;;;6.60;88.20;;;;;;5135797;27;20218;-64
2022/01/06 12:19:31;;;;;;;4.20;2.42;;;6.60;87.50;;;;;;5135319;27;20226;-63
2022/01/06 12:21:58;;;;;;;6.75;2.40;;;6.70;86.30;;;;;;5128480;27;20544;-64
2022/01/06 12:24:25;;;;;;;5.68;2.70;;;6.60;86.80;;;;;;5128222;27;20221;-64
2022/01/06 12:26:53;;;;;;;5.18;3.15;;;6.70;86.90;;;;;;5119283;27;20222;-64
2022/01/06 12:29:25;;;;;;;2.95;2.20;;;6.60;85.60;;;;;;5115216;27;20745;-64
2022/01/06 12:32:02;;;;;;;2.75;1.73;;;6.60;86.20;;;;;;5135591;27;20230;-63
2022/01/06 12:34:29;;;;;;;3.90;2.33;;;6.70;84.70;;;;;;5134788;27;20317;-64
2022/01/06 12:36:56;;;;;;;3.78;2.15;;;6.70;84.00;;;;;;5121106;27;20227;-64
2022/01/06 12:39:23;;;;;;;5.25;4.38;;;6.70;84.30;;;;;;5127836;27;20227;-64
2022/01/06 12:41:53;;;;;;;5.65;4.50;;;6.70;83.70;;;;;;5135325;27;20229;-63
2022/01/06 12:44:22;;;;;;;5.65;4.97;;;6.80;81.30;;;;;;5134514;27;20245;-63
2022/01/06 12:46:50;;;;;;;5.57;3.88;;;6.80;81.00;;;;;;5134725;27;20649;-63
2022/01/06 12:49:17;;;;;;;7.32;5.20;;;6.80;80.50;;;;;;5135177;27;20229;-63
2022/01/06 12:51:47;;;;;;;12.77;8.68;;;6.70;80.20;;;;;;5134525;27;20225;-63
2022/01/06 12:54:17;;;;;;;5.00;4.15;;;6.70;80.00;;;;;;5134985;27;20223;-64
2022/01/06 12:56:47;;;;;;;5.55;3.08;;;6.80;79.10;;;;;;5134564;27;20301;-63
2022/01/06 12:59:15;;;;;;;3.40;2.53;;;6.80;78.80;;;;;;5118941;27;20236;-63
2022/01/06 13:01:45;;;;;;;4.97;3.15;;;6.80;77.50;;;;;;5116829;27;20669;-62
2022/01/06 13:04:13;;;;;;;5.25;4.85;;;6.80;77.30;;;;;;5134936;27;20588;-63